Wetterdaten: Woche 15.09.08 - 21.09.08 (KW38)
Datum Zeit Temperatur Luftfeuchte Luftdruck Niederschlag Wind Richtung Sonnenschein Solar Taupunkt Windchill Windben
15.09.2008 00:00 9.1 C 93 % 1019.6 hPa 0.0 l/m 0.7 km/h (0 Bft) O-SO 0.00 h 0 W/m 8.1 C 9.1 C 2.0 km/h (1 Bft)
15.09.2008 01:00 8.8 C 96 % 1019.0 hPa 0.0 l/m 0.1 km/h (0 Bft) NO 0.00 h 0 W/m 8.2 C 8.8 C 0.3 km/h (0 Bft)
15.09.2008 02:00 8.9 C 90 % 1018.8 hPa 0.0 l/m 2.7 km/h (1 Bft) N 0.00 h 0 W/m 7.3 C 8.7 C 5.3 km/h (1 Bft)
15.09.2008 03:00 9.1 C 79 % 1018.6 hPa 0.0 l/m 5.0 km/h (1 Bft) N 0.00 h 0 W/m 5.7 C 8.6 C 9.3 km/h (2 Bft)
15.09.2008 04:00 8.6 C 80 % 1018.8 hPa 0.0 l/m 1.7 km/h (1 Bft) NO 0.00 h 0 W/m 5.4 C 8.6 C 4.5 km/h (1 Bft)
15.09.2008 05:00 8.0 C 80 % 1018.7 hPa 0.0 l/m 2.8 km/h (1 Bft) NO 0.00 h 0 W/m 4.8 C 7.8 C 6.0 km/h (2 Bft)
15.09.2008 06:00 6.8 C 85 % 1019.0 hPa 0.0 l/m 2.4 km/h (1 Bft) O-SO 0.00 h 0 W/m 4.5 C 6.8 C 4.9 km/h (1 Bft)
15.09.2008 07:00 7.0 C 83 % 1019.7 hPa 0.0 l/m 2.1 km/h (1 Bft) NO 0.00 h 20 W/m 4.4 C 6.9 C 5.6 km/h (1 Bft)
15.09.2008 08:00 7.2 C 83 % 1019.9 hPa 0.0 l/m 1.7 km/h (1 Bft) N-NW 0.00 h 47 W/m 4.5 C 7.2 C 4.0 km/h (1 Bft)
15.09.2008 09:00 8.6 C 80 % 1020.0 hPa 0.0 l/m 1.9 km/h (1 Bft) N-NW 0.37 h 225 W/m 5.4 C 8.6 C 4.6 km/h (1 Bft)
15.09.2008 10:00 11.1 C 73 % 1019.8 hPa 0.0 l/m 2.1 km/h (1 Bft) N 1.00 h 481 W/m 6.5 C 11.1 C 4.5 km/h (1 Bft)
15.09.2008 11:00 12.6 C 68 % 1019.5 hPa 0.0 l/m 5.4 km/h (1 Bft) N-NW 0.70 h 504 W/m 6.9 C 12.6 C 9.9 km/h (2 Bft)
15.09.2008 12:00 12.3 C 67 % 1019.5 hPa 0.0 l/m 3.2 km/h (1 Bft) O-SO 0.17 h 313 W/m 6.3 C 12.3 C 6.6 km/h (2 Bft)
15.09.2008 13:00 12.6 C 67 % 1019.3 hPa 0.0 l/m 2.5 km/h (1 Bft) N 0.08 h 265 W/m 6.6 C 12.6 C 6.0 km/h (2 Bft)
15.09.2008 14:00 12.4 C 67 % 1019.2 hPa 0.0 l/m 2.3 km/h (1 Bft) O-SO 0.13 h 170 W/m 6.4 C 12.4 C 5.1 km/h (1 Bft)
15.09.2008 15:00 11.7 C 72 % 1019.6 hPa 0.0 l/m 0.2 km/h (0 Bft) SO 0.00 h 47 W/m 6.7 C 11.7 C 1.0 km/h (0 Bft)
15.09.2008 16:00 11.4 C 79 % 1019.7 hPa 0.0 l/m 0.2 km/h (0 Bft) SO 0.00 h 79 W/m 7.9 C 11.4 C 1.0 km/h (0 Bft)
15.09.2008 17:00 11.2 C 80 % 1019.8 hPa 0.0 l/m 0.5 km/h (0 Bft) W 0.00 h 41 W/m 7.8 C 11.2 C 1.8 km/h (1 Bft)
15.09.2008 18:00 10.9 C 80 % 1020.0 hPa 0.0 l/m 0.6 km/h (0 Bft) N-NW 0.00 h 11 W/m 7.5 C 10.9 C 2.0 km/h (1 Bft)
15.09.2008 19:00 10.3 C 80 % 1020.2 hPa 0.0 l/m 0.1 km/h (0 Bft) O-SO 0.00 h 8 W/m 7.0 C 10.3 C 0.5 km/h (0 Bft)
15.09.2008 20:00 9.9 C 82 % 1020.4 hPa 0.0 l/m 0.6 km/h (0 Bft) O-SO 0.00 h 0 W/m 6.9 C 9.9 C 1.9 km/h (1 Bft)
15.09.2008 21:00 9.8 C 76 % 1020.7 hPa 0.0 l/m 3.1 km/h (1 Bft) NO 0.00 h 0 W/m 5.8 C 9.6 C 7.3 km/h (2 Bft)
15.09.2008 22:00 9.1 C 80 % 1021.0 hPa 0.0 l/m 3.1 km/h (1 Bft) NO 0.00 h 0 W/m 5.7 C 9.0 C 7.3 km/h (2 Bft)
15.09.2008 23:00 8.5 C 83 % 1020.8 hPa 0.0 l/m 0.9 km/h (0 Bft) NO 0.00 h 0 W/m 5.7 C 8.4 C 3.0 km/h (1 Bft)
16.09.2008 00:00 8.2 C 85 % 1020.6 hPa 0.0 l/m 0.4 km/h (0 Bft) O 0.00 h 0 W/m 5.8 C 8.2 C 1.8 km/h (1 Bft)
16.09.2008 01:00 8.0 C 86 % 1020.5 hPa 0.0 l/m 0.3 km/h (0 Bft) NO 0.00 h 0 W/m 5.8 C 8.0 C 1.1 km/h (1 Bft)
16.09.2008 02:00 7.6 C 87 % 1020.3 hPa 0.0 l/m 0.3 km/h (0 Bft) NO 0.00 h 0 W/m 5.5 C 7.6 C 1.4 km/h (1 Bft)
16.09.2008 03:00 6.8 C 89 % 1020.2 hPa 0.0 l/m 0.2 km/h (0 Bft) NO 0.00 h 0 W/m 5.1 C 6.8 C 1.4 km/h (1 Bft)
16.09.2008 04:00 6.0 C 91 % 1020.1 hPa 0.0 l/m 2.5 km/h (1 Bft) O-SO 0.00 h 0 W/m 4.7 C 5.8 C 4.2 km/h (1 Bft)
16.09.2008 05:00 6.2 C 93 % 1020.0 hPa 0.0 l/m 2.1 km/h (1 Bft) O-SO 0.00 h 0 W/m 5.0 C 5.8 C 3.3 km/h (1 Bft)
16.09.2008 06:00 6.4 C 93 % 1020.1 hPa 0.0 l/m 0.1 km/h (0 Bft) O-SO 0.00 h 0 W/m 5.4 C 6.4 C 0.7 km/h (0 Bft)
16.09.2008 07:00 6.0 C 95 % 1020.3 hPa 0.0 l/m 0.0 km/h (0 Bft) N 0.00 h 18 W/m 5.2 C 6.0 C 0.2 km/h (0 Bft)
16.09.2008 08:00 6.8 C 96 % 1020.5 hPa 0.0 l/m 0.2 km/h (0 Bft) O-SO 0.10 h 90 W/m 6.1 C 6.8 C 0.9 km/h (0 Bft)
16.09.2008 09:00 10.0 C 84 % 1020.3 hPa 0.0 l/m 3.1 km/h (1 Bft) N 0.87 h 335 W/m 7.3 C 9.9 C 5.5 km/h (1 Bft)
16.09.2008 10:00 11.1 C 76 % 1020.2 hPa 0.0 l/m 4.3 km/h (1 Bft) O-SO 0.50 h 306 W/m 7.0 C 11.1 C 8.8 km/h (2 Bft)
16.09.2008 11:00 11.8 C 73 % 1020.3 hPa 0.0 l/m 3.7 km/h (1 Bft) NO 0.13 h 292 W/m 7.1 C 11.8 C 8.2 km/h (2 Bft)
16.09.2008 12:00 12.7 C 68 % 1020.3 hPa 0.0 l/m 3.7 km/h (1 Bft) O 0.32 h 413 W/m 6.9 C 12.7 C 7.7 km/h (2 Bft)
16.09.2008 13:00 12.6 C 65 % 1020.2 hPa 0.0 l/m 5.6 km/h (1 Bft) O-SO 0.15 h 309 W/m 6.1 C 12.6 C 10.7 km/h (2 Bft)
16.09.2008 14:00 12.7 C 60 % 1020.1 hPa 0.0 l/m 7.9 km/h (2 Bft) O-SO 0.08 h 325 W/m 5.1 C 12.7 C 14.0 km/h (3 Bft)
16.09.2008 15:00 13.1 C 59 % 1020.2 hPa 0.0 l/m 6.1 km/h (2 Bft) O-SO 0.47 h 327 W/m 5.3 C 13.1 C 11.0 km/h (2 Bft)
16.09.2008 16:00 13.7 C 57 % 1020.0 hPa 0.0 l/m 4.9 km/h (1 Bft) N 0.95 h 393 W/m 5.3 C 13.7 C 10.1 km/h (2 Bft)
16.09.2008 17:00 12.9 C 59 % 1020.0 hPa 0.0 l/m 3.5 km/h (1 Bft) O-NO 0.47 h 201 W/m 5.0 C 12.9 C 7.5 km/h (2 Bft)
16.09.2008 18:00 12.3 C 58 % 1020.2 hPa 0.0 l/m 2.9 km/h (1 Bft) O-NO 0.00 h 55 W/m 4.3 C 12.3 C 7.0 km/h (2 Bft)
16.09.2008 19:00 10.7 C 67 % 1020.6 hPa 0.0 l/m 1.1 km/h (0 Bft) NO 0.02 h 17 W/m 4.8 C 10.7 C 3.4 km/h (1 Bft)
16.09.2008 20:00 8.7 C 77 % 1020.6 hPa 0.0 l/m 1.1 km/h (1 Bft) O-SO 0.00 h 0 W/m 4.8 C 8.7 C 2.9 km/h (1 Bft)
16.09.2008 21:00 7.5 C 84 % 1020.7 hPa 0.0 l/m 0.0 km/h (0 Bft) N 0.00 h 0 W/m 4.9 C 7.5 C 0.4 km/h (0 Bft)
16.09.2008 22:00 6.7 C 88 % 1020.9 hPa 0.0 l/m 0.4 km/h (0 Bft) O-SO 0.00 h 0 W/m 4.9 C 6.7 C 0.9 km/h (0 Bft)
16.09.2008 23:00 6.3 C 90 % 1020.8 hPa 0.0 l/m 0.4 km/h (0 Bft) NW 0.00 h 0 W/m 4.7 C 6.3 C 1.2 km/h (1 Bft)
17.09.2008 00:00 5.6 C 93 % 1020.9 hPa 0.0 l/m 0.2 km/h (0 Bft) NW 0.00 h 0 W/m 4.6 C 5.6 C 0.9 km/h (0 Bft)
17.09.2008 01:00 5.2 C 94 % 1020.8 hPa 0.0 l/m 0.1 km/h (0 Bft) NW 0.00 h 0 W/m 4.3 C 5.2 C 0.7 km/h (0 Bft)
17.09.2008 02:00 4.6 C 96 % 1020.7 hPa 0.0 l/m 0.3 km/h (0 Bft) NW 0.00 h 0 W/m 4.0 C 4.6 C 1.0 km/h (0 Bft)
17.09.2008 03:00 4.2 C 97 % 1020.5 hPa 0.0 l/m 0.1 km/h (0 Bft) NW 0.00 h 0 W/m 3.8 C 4.2 C 0.7 km/h (0 Bft)
17.09.2008 04:00 4.0 C 97 % 1020.5 hPa 0.0 l/m 0.4 km/h (0 Bft) NW 0.00 h 0 W/m 3.6 C 4.0 C 1.2 km/h (1 Bft)
17.09.2008 05:00 3.7 C 98 % 1020.5 hPa 0.2 l/m 0.5 km/h (0 Bft) N-NO 0.00 h 0 W/m 3.3 C 3.7 C 1.3 km/h (1 Bft)
17.09.2008 06:00 4.7 C 98 % 1020.5 hPa 0.0 l/m 0.3 km/h (0 Bft) N-NW 0.00 h 0 W/m 4.5 C 4.7 C 1.2 km/h (1 Bft)
17.09.2008 07:00 5.5 C 99 % 1020.6 hPa 0.0 l/m 0.1 km/h (0 Bft) S-SO 0.00 h 17 W/m 5.3 C 5.5 C 0.9 km/h (0 Bft)
17.09.2008 08:00 6.5 C 94 % 1020.8 hPa 0.0 l/m 0.5 km/h (0 Bft) O-SO 0.00 h 44 W/m 5.7 C 6.5 C 1.5 km/h (1 Bft)
17.09.2008 09:00 7.5 C 85 % 1020.9 hPa 0.0 l/m 0.4 km/h (0 Bft) O-NO 0.00 h 73 W/m 5.1 C 7.5 C 1.7 km/h (1 Bft)
17.09.2008 10:00 8.4 C 82 % 1021.2 hPa 0.0 l/m 1.7 km/h (1 Bft) O 0.00 h 119 W/m 5.4 C 8.3 C 4.3 km/h (1 Bft)
17.09.2008 11:00 8.8 C 78 % 1021.2 hPa 0.0 l/m 3.1 km/h (1 Bft) O-SO 0.00 h 125 W/m 5.2 C 8.6 C 6.2 km/h (2 Bft)
17.09.2008 12:00 9.3 C 77 % 1021.3 hPa 0.0 l/m 1.6 km/h (1 Bft) O-SO 0.00 h 146 W/m 5.4 C 9.3 C 4.2 km/h (1 Bft)
17.09.2008 13:00 9.9 C 74 % 1021.2 hPa 0.0 l/m 2.8 km/h (1 Bft) NO 0.00 h 196 W/m 5.5 C 9.9 C 6.4 km/h (2 Bft)
17.09.2008 14:00 10.6 C 70 % 1021.1 hPa 0.0 l/m 2.9 km/h (1 Bft) O 0.02 h 268 W/m 5.4 C 10.6 C 5.8 km/h (2 Bft)
17.09.2008 15:00 11.3 C 69 % 1020.7 hPa 0.0 l/m 7.4 km/h (2 Bft) O-SO 0.60 h 386 W/m 5.8 C 11.3 C 11.6 km/h (2 Bft)
17.09.2008 16:00 12.0 C 68 % 1020.1 hPa 0.0 l/m 6.1 km/h (2 Bft) O-SO 0.85 h 322 W/m 6.1 C 12.0 C 9.7 km/h (2 Bft)
17.09.2008 17:00 12.3 C 67 % 1019.7 hPa 0.0 l/m 6.2 km/h (2 Bft) O-SO 0.92 h 257 W/m 6.3 C 12.3 C 9.7 km/h (2 Bft)
17.09.2008 18:00 11.8 C 68 % 1019.8 hPa 0.0 l/m 4.1 km/h (1 Bft) O-SO 0.05 h 76 W/m 6.1 C 11.8 C 7.1 km/h (2 Bft)
17.09.2008 19:00 10.4 C 74 % 1020.0 hPa 0.0 l/m 0.3 km/h (0 Bft) O-SO 0.00 h 16 W/m 5.9 C 10.4 C 1.2 km/h (1 Bft)
17.09.2008 20:00 9.0 C 81 % 1020.7 hPa 0.0 l/m 1.0 km/h (0 Bft) O-SO 0.00 h 0 W/m 5.9 C 9.0 C 2.8 km/h (1 Bft)
17.09.2008 21:00 8.3 C 81 % 1021.2 hPa 0.0 l/m 0.5 km/h (0 Bft) O-NO 0.00 h 0 W/m 5.2 C 8.3 C 2.0 km/h (1 Bft)
17.09.2008 22:00 7.4 C 88 % 1021.4 hPa 0.0 l/m 0.1 km/h (0 Bft) O 0.00 h 0 W/m 5.5 C 7.4 C 0.4 km/h (0 Bft)
17.09.2008 23:00 6.9 C 87 % 1021.5 hPa 0.0 l/m 0.1 km/h (0 Bft) O 0.00 h 0 W/m 4.8 C 6.9 C 0.7 km/h (0 Bft)
18.09.2008 00:00 6.3 C 88 % 1021.7 hPa 0.0 l/m 0.0 km/h (0 Bft) N 0.00 h 0 W/m 4.6 C 6.3 C 0.1 km/h (0 Bft)
18.09.2008 01:00 5.5 C 92 % 1021.8 hPa 0.0 l/m 0.1 km/h (0 Bft) O 0.00 h 0 W/m 4.2 C 5.5 C 0.5 km/h (0 Bft)
18.09.2008 02:00 4.6 C 94 % 1021.7 hPa 0.0 l/m 1.3 km/h (1 Bft) O 0.00 h 0 W/m 3.8 C 4.6 C 2.6 km/h (1 Bft)
18.09.2008 03:00 4.3 C 95 % 1021.5 hPa 0.0 l/m 1.4 km/h (1 Bft) O 0.00 h 0 W/m 3.7 C 4.3 C 3.0 km/h (1 Bft)
18.09.2008 04:00 3.9 C 96 % 1021.4 hPa 0.0 l/m 0.9 km/h (0 Bft) O 0.00 h 0 W/m 3.4 C 3.9 C 2.0 km/h (1 Bft)
18.09.2008 05:00 3.7 C 97 % 1021.6 hPa 0.0 l/m 0.0 km/h (0 Bft) O 0.00 h 0 W/m 3.4 C 3.7 C 0.1 km/h (0 Bft)
18.09.2008 06:00 4.5 C 97 % 1021.8 hPa 0.0 l/m 0.2 km/h (0 Bft) O 0.00 h 0 W/m 4.1 C 4.5 C 0.7 km/h (0 Bft)
18.09.2008 07:00 5.1 C 98 % 1022.1 hPa 0.0 l/m 0.6 km/h (0 Bft) O 0.00 h 12 W/m 4.8 C 5.1 C 2.0 km/h (1 Bft)
18.09.2008 08:00 5.8 C 97 % 1022.3 hPa 0.0 l/m 0.5 km/h (0 Bft) N-NO 0.00 h 33 W/m 5.3 C 5.8 C 1.6 km/h (1 Bft)
18.09.2008 09:00 6.5 C 93 % 1022.3 hPa 0.0 l/m 0.0 km/h (0 Bft) N-NO 0.00 h 68 W/m 5.4 C 6.5 C 0.4 km/h (0 Bft)
18.09.2008 10:00 7.4 C 88 % 1022.7 hPa 0.0 l/m 0.5 km/h (0 Bft) SO 0.00 h 122 W/m 5.6 C 7.4 C 1.7 km/h (1 Bft)
18.09.2008 11:00 8.6 C 87 % 1022.7 hPa 0.0 l/m 1.5 km/h (1 Bft) O-SO 0.00 h 207 W/m 6.5 C 8.6 C 3.7 km/h (1 Bft)
18.09.2008 12:00 9.4 C 84 % 1022.2 hPa 0.0 l/m 2.4 km/h (1 Bft) O-SO 0.00 h 196 W/m 6.8 C 9.2 C 4.7 km/h (1 Bft)
18.09.2008 13:00 9.8 C 83 % 1022.0 hPa 0.0 l/m 1.8 km/h (1 Bft) O-SO 0.00 h 198 W/m 7.1 C 9.8 C 4.4 km/h (1 Bft)
18.09.2008 14:00 10.2 C 82 % 1021.6 hPa 0.0 l/m 3.7 km/h (1 Bft) O-SO 0.00 h 265 W/m 7.3 C 10.1 C 6.2 km/h (2 Bft)
18.09.2008 15:00 10.7 C 83 % 1021.5 hPa 0.0 l/m 0.8 km/h (0 Bft) NO 0.00 h 130 W/m 7.9 C 10.7 C 2.9 km/h (1 Bft)
18.09.2008 16:00 10.5 C 84 % 1021.5 hPa 0.0 l/m 1.0 km/h (0 Bft) O-NO 0.00 h 77 W/m 8.0 C 10.5 C 2.5 km/h (1 Bft)
18.09.2008 17:00 10.6 C 86 % 1021.4 hPa 0.0 l/m 1.2 km/h (1 Bft) O-SO 0.00 h 65 W/m 8.3 C 10.6 C 2.5 km/h (1 Bft)
18.09.2008 18:00 10.5 C 87 % 1021.4 hPa 0.0 l/m 0.7 km/h (0 Bft) SO 0.00 h 24 W/m 8.4 C 10.5 C 2.2 km/h (1 Bft)
18.09.2008 19:00 10.1 C 89 % 1021.8 hPa 0.0 l/m 0.6 km/h (0 Bft) NO 0.00 h 8 W/m 8.3 C 10.1 C 1.8 km/h (1 Bft)
18.09.2008 20:00 9.6 C 92 % 1021.6 hPa 0.0 l/m 0.9 km/h (0 Bft) S-SO 0.00 h 0 W/m 8.4 C 9.6 C 2.0 km/h (1 Bft)
18.09.2008 21:00 9.2 C 93 % 1021.6 hPa 0.0 l/m 0.3 km/h (0 Bft) O 0.00 h 0 W/m 8.2 C 9.2 C 1.1 km/h (1 Bft)
18.09.2008 22:00 8.8 C 95 % 1021.6 hPa 0.0 l/m 1.0 km/h (0 Bft) O-NO 0.00 h 0 W/m 8.1 C 8.8 C 2.2 km/h (1 Bft)
18.09.2008 23:00 8.8 C 96 % 1021.5 hPa 0.0 l/m 1.5 km/h (1 Bft) O-SO 0.00 h 0 W/m 8.2 C 8.8 C 2.4 km/h (1 Bft)
19.09.2008 00:00 9.0 C 96 % 1021.5 hPa 0.0 l/m 0.4 km/h (0 Bft) O-SO 0.00 h 0 W/m 8.4 C 9.0 C 1.2 km/h (1 Bft)
19.09.2008 01:00 9.0 C 96 % 1021.1 hPa 0.0 l/m 0.6 km/h (0 Bft) O-SO 0.00 h 0 W/m 8.4 C 9.0 C 1.5 km/h (1 Bft)
19.09.2008 02:00 9.2 C 96 % 1021.0 hPa 0.0 l/m 1.0 km/h (0 Bft) O-SO 0.00 h 0 W/m 8.5 C 9.1 C 2.1 km/h (1 Bft)
19.09.2008 03:00 9.3 C 97 % 1020.3 hPa 0.0 l/m 0.2 km/h (0 Bft) SO 0.00 h 0 W/m 8.8 C 9.3 C 0.8 km/h (0 Bft)
19.09.2008 04:00 9.5 C 97 % 1020.0 hPa 0.0 l/m 0.1 km/h (0 Bft) SO 0.00 h 0 W/m 9.1 C 9.5 C 0.6 km/h (0 Bft)
19.09.2008 05:00 9.7 C 97 % 1020.1 hPa 0.0 l/m 0.0 km/h (0 Bft) N 0.00 h 0 W/m 9.2 C 9.7 C 0.0 km/h (0 Bft)
19.09.2008 06:00 9.8 C 97 % 1020.3 hPa 0.2 l/m 0.1 km/h (0 Bft) SO 0.00 h 0 W/m 9.3 C 9.8 C 0.6 km/h (0 Bft)
19.09.2008 07:00 9.8 C 97 % 1020.6 hPa 0.0 l/m 0.1 km/h (0 Bft) SO 0.00 h 9 W/m 9.4 C 9.8 C 0.3 km/h (0 Bft)
19.09.2008 08:00 10.1 C 97 % 1021.1 hPa 0.0 l/m 0.2 km/h (0 Bft) SO 0.00 h 46 W/m 9.6 C 10.1 C 1.0 km/h (0 Bft)
19.09.2008 09:00 11.0 C 91 % 1021.4 hPa 0.0 l/m 1.4 km/h (1 Bft) SO 0.00 h 139 W/m 9.6 C 11.0 C 2.9 km/h (1 Bft)
19.09.2008 10:00 12.3 C 85 % 1021.5 hPa 0.0 l/m 0.7 km/h (0 Bft) SO 0.00 h 201 W/m 9.8 C 12.3 C 2.5 km/h (1 Bft)
19.09.2008 11:00 13.1 C 84 % 1021.9 hPa 0.0 l/m 2.3 km/h (1 Bft) O-SO 0.23 h 322 W/m 10.5 C 13.1 C 4.7 km/h (1 Bft)
19.09.2008 12:00 15.4 C 79 % 1021.6 hPa 0.0 l/m 1.1 km/h (1 Bft) N 0.85 h 565 W/m 11.8 C 15.4 C 3.0 km/h (1 Bft)
19.09.2008 13:00 17.1 C 75 % 1021.4 hPa 0.0 l/m 1.6 km/h (1 Bft) W 0.95 h 626 W/m 12.5 C 17.1 C 3.7 km/h (1 Bft)
19.09.2008 14:00 18.1 C 70 % 1021.2 hPa 0.0 l/m 1.4 km/h (1 Bft) O-SO 0.82 h 527 W/m 12.6 C 18.1 C 3.7 km/h (1 Bft)
19.09.2008 15:00 18.9 C 67 % 1021.2 hPa 0.0 l/m 1.7 km/h (1 Bft) O-SO 0.87 h 488 W/m 12.5 C 18.9 C 3.7 km/h (1 Bft)
19.09.2008 16:00 18.3 C 69 % 1021.2 hPa 0.0 l/m 2.9 km/h (1 Bft) O-SO 0.15 h 141 W/m 12.6 C 18.3 C 5.0 km/h (1 Bft)
19.09.2008 17:00 16.2 C 82 % 1021.6 hPa 0.2 l/m 1.2 km/h (1 Bft) W-NW 0.00 h 55 W/m 13.1 C 16.2 C 2.4 km/h (1 Bft)
19.09.2008 18:00 15.8 C 90 % 1022.1 hPa 0.2 l/m 1.8 km/h (1 Bft) W-NW 0.22 h 84 W/m 14.2 C 15.8 C 3.3 km/h (1 Bft)
19.09.2008 19:00 14.7 C 90 % 1022.8 hPa 0.0 l/m 0.7 km/h (0 Bft) O-SO 0.00 h 18 W/m 13.1 C 14.7 C 1.9 km/h (1 Bft)
19.09.2008 20:00 14.0 C 96 % 1023.4 hPa 0.0 l/m 0.1 km/h (0 Bft) O-SO 0.00 h 0 W/m 13.4 C 14.0 C 0.5 km/h (0 Bft)
19.09.2008 21:00 13.7 C 96 % 1023.6 hPa 0.0 l/m 0.0 km/h (0 Bft) O-SO 0.00 h 0 W/m 13.1 C 13.7 C 0.5 km/h (0 Bft)
19.09.2008 22:00 12.9 C 94 % 1023.9 hPa 0.0 l/m 0.7 km/h (0 Bft) O-SO 0.00 h 0 W/m 11.9 C 12.9 C 1.6 km/h (1 Bft)
19.09.2008 23:00 12.7 C 91 % 1024.1 hPa 0.0 l/m 1.2 km/h (1 Bft) O-SO 0.00 h 0 W/m 11.2 C 12.7 C 3.4 km/h (1 Bft)
20.09.2008 00:00 12.5 C 81 % 1024.2 hPa 0.0 l/m 1.3 km/h (1 Bft) O 0.00 h 0 W/m 9.3 C 12.5 C 3.3 km/h (1 Bft)
20.09.2008 01:00 11.9 C 75 % 1024.4 hPa 0.0 l/m 1.1 km/h (1 Bft) NO 0.00 h 0 W/m 7.7 C 11.9 C 3.0 km/h (1 Bft)
20.09.2008 02:00 11.0 C 76 % 1024.8 hPa 0.0 l/m 1.2 km/h (1 Bft) NO 0.00 h 0 W/m 7.0 C 11.0 C 3.7 km/h (1 Bft)
20.09.2008 03:00 10.2 C 78 % 1024.9 hPa 0.0 l/m 1.1 km/h (0 Bft) N-NO 0.00 h 0 W/m 6.6 C 10.2 C 3.6 km/h (1 Bft)
20.09.2008 04:00 8.9 C 83 % 1025.1 hPa 0.0 l/m 0.7 km/h (0 Bft) NO 0.00 h 0 W/m 6.2 C 8.9 C 2.0 km/h (1 Bft)
20.09.2008 05:00 8.2 C 84 % 1025.3 hPa 0.0 l/m 3.4 km/h (1 Bft) O-SO 0.00 h 0 W/m 5.7 C 8.0 C 5.1 km/h (1 Bft)
20.09.2008 06:00 7.8 C 84 % 1025.5 hPa 0.0 l/m 1.2 km/h (1 Bft) O-SO 0.00 h 0 W/m 5.3 C 7.7 C 3.1 km/h (1 Bft)
20.09.2008 07:00 7.5 C 83 % 1026.3 hPa 0.0 l/m 0.7 km/h (0 Bft) O-NO 0.03 h 20 W/m 4.8 C 7.4 C 2.3 km/h (1 Bft)
20.09.2008 08:00 8.4 C 79 % 1027.1 hPa 0.0 l/m 0.7 km/h (0 Bft) O-SO 0.88 h 137 W/m 4.9 C 8.4 C 2.1 km/h (1 Bft)
20.09.2008 09:00 10.4 C 69 % 1027.1 hPa 0.0 l/m 2.9 km/h (1 Bft) O-SO 1.00 h 301 W/m 5.0 C 10.4 C 6.1 km/h (2 Bft)
20.09.2008 10:00 12.2 C 61 % 1026.9 hPa 0.0 l/m 4.8 km/h (1 Bft) O 1.00 h 450 W/m 4.8 C 12.2 C 10.2 km/h (2 Bft)
20.09.2008 11:00 13.5 C 56 % 1026.8 hPa 0.0 l/m 6.1 km/h (2 Bft) O 1.00 h 563 W/m 4.9 C 13.5 C 11.9 km/h (2 Bft)
20.09.2008 12:00 14.4 C 55 % 1026.5 hPa 0.0 l/m 5.7 km/h (1 Bft) O-SO 1.00 h 628 W/m 5.4 C 14.4 C 11.3 km/h (2 Bft)
20.09.2008 13:00 15.2 C 53 % 1026.1 hPa 0.0 l/m 5.9 km/h (2 Bft) O-SO 1.00 h 652 W/m 5.6 C 15.2 C 12.4 km/h (3 Bft)
20.09.2008 14:00 15.5 C 51 % 1025.7 hPa 0.0 l/m 5.7 km/h (1 Bft) O 1.00 h 614 W/m 5.4 C 15.5 C 11.7 km/h (2 Bft)
20.09.2008 15:00 15.6 C 51 % 1025.6 hPa 0.0 l/m 5.9 km/h (2 Bft) O-SO 1.00 h 529 W/m 5.4 C 15.6 C 12.7 km/h (3 Bft)
20.09.2008 16:00 15.5 C 50 % 1025.5 hPa 0.0 l/m 5.8 km/h (2 Bft) O-SO 1.00 h 398 W/m 5.2 C 15.5 C 11.9 km/h (2 Bft)
20.09.2008 17:00 14.6 C 51 % 1025.4 hPa 0.0 l/m 6.5 km/h (2 Bft) O-SO 1.00 h 250 W/m 4.6 C 14.6 C 12.7 km/h (3 Bft)
20.09.2008 18:00 13.5 C 54 % 1025.6 hPa 0.0 l/m 5.4 km/h (1 Bft) O 0.02 h 48 W/m 4.2 C 13.5 C 11.1 km/h (2 Bft)
20.09.2008 19:00 12.0 C 58 % 1025.8 hPa 0.0 l/m 3.1 km/h (1 Bft) N-NO 0.05 h 14 W/m 4.0 C 12.0 C 7.4 km/h (2 Bft)
20.09.2008 20:00 10.7 C 62 % 1026.2 hPa 0.0 l/m 3.0 km/h (1 Bft) O 0.00 h 0 W/m 3.7 C 10.7 C 6.4 km/h (2 Bft)
20.09.2008 21:00 9.6 C 66 % 1026.3 hPa 0.0 l/m 4.1 km/h (1 Bft) NO 0.00 h 0 W/m 3.5 C 9.3 C 8.7 km/h (2 Bft)
20.09.2008 22:00 9.1 C 67 % 1026.1 hPa 0.0 l/m 4.3 km/h (1 Bft) NO 0.00 h 0 W/m 3.3 C 8.8 C 8.5 km/h (2 Bft)
20.09.2008 23:00 8.5 C 70 % 1025.4 hPa 0.0 l/m 3.2 km/h (1 Bft) N-NO 0.00 h 0 W/m 3.3 C 8.4 C 7.5 km/h (2 Bft)
21.09.2008 00:00 8.2 C 71 % 1024.8 hPa 0.0 l/m 5.2 km/h (1 Bft) NO 0.00 h 0 W/m 3.3 C 7.6 C 10.7 km/h (2 Bft)
21.09.2008 01:00 8.0 C 72 % 1024.3 hPa 0.0 l/m 6.1 km/h (2 Bft) N-NO 0.00 h 0 W/m 3.2 C 7.2 C 13.0 km/h (3 Bft)
21.09.2008 02:00 7.6 C 74 % 1023.9 hPa 0.0 l/m 3.6 km/h (1 Bft) O 0.00 h 0 W/m 3.2 C 7.3 C 8.4 km/h (2 Bft)
21.09.2008 03:00 7.3 C 75 % 1023.7 hPa 0.0 l/m 1.6 km/h (1 Bft) O 0.00 h 0 W/m 3.2 C 7.2 C 4.4 km/h (1 Bft)
21.09.2008 04:00 6.8 C 77 % 1023.4 hPa 0.0 l/m 1.1 km/h (1 Bft) NO 0.00 h 0 W/m 3.1 C 6.8 C 3.2 km/h (1 Bft)
21.09.2008 05:00 6.5 C 80 % 1022.9 hPa 0.0 l/m 1.1 km/h (1 Bft) NO 0.00 h 0 W/m 3.2 C 6.4 C 3.2 km/h (1 Bft)
21.09.2008 06:00 6.4 C 80 % 1022.8 hPa 0.0 l/m 1.2 km/h (1 Bft) NO 0.00 h 0 W/m 3.2 C 6.3 C 3.2 km/h (1 Bft)
21.09.2008 07:00 5.8 C 83 % 1023.0 hPa 0.0 l/m 0.7 km/h (0 Bft) SO 0.13 h 23 W/m 3.2 C 5.8 C 1.8 km/h (1 Bft)
21.09.2008 08:00 6.6 C 84 % 1023.2 hPa 0.0 l/m 0.4 km/h (0 Bft) O-NO 0.03 h 93 W/m 4.0 C 6.6 C 1.5 km/h (1 Bft)
21.09.2008 09:00 8.7 C 75 % 1023.1 hPa 0.0 l/m 1.3 km/h (1 Bft) O-SO 0.45 h 208 W/m 4.5 C 8.6 C 3.5 km/h (1 Bft)
21.09.2008 10:00 10.4 C 69 % 1022.6 hPa 0.0 l/m 3.1 km/h (1 Bft) O-SO 0.70 h 348 W/m 5.0 C 10.4 C 6.3 km/h (2 Bft)
21.09.2008 11:00 11.1 C 66 % 1022.1 hPa 0.0 l/m 3.7 km/h (1 Bft) O-SO 0.48 h 353 W/m 5.0 C 11.1 C 6.9 km/h (2 Bft)
21.09.2008 12:00 12.2 C 61 % 1021.7 hPa 0.0 l/m 5.7 km/h (1 Bft) O-SO 0.73 h 545 W/m 4.9 C 12.2 C 11.1 km/h (2 Bft)
21.09.2008 13:00 13.5 C 57 % 1020.9 hPa 0.0 l/m 7.7 km/h (2 Bft) O-SO 0.85 h 636 W/m 5.1 C 13.5 C 14.2 km/h (3 Bft)
21.09.2008 14:00 14.9 C 51 % 1020.1 hPa 0.0 l/m 9.8 km/h (2 Bft) O-SO 0.87 h 615 W/m 4.7 C 14.9 C 17.0 km/h (3 Bft)
21.09.2008 15:00 15.2 C 50 % 1019.6 hPa 0.0 l/m 7.4 km/h (2 Bft) O-SO 0.67 h 444 W/m 4.9 C 15.2 C 13.3 km/h (3 Bft)
21.09.2008 16:00 15.6 C 50 % 1019.5 hPa 0.0 l/m 4.2 km/h (1 Bft) O-SO 0.73 h 412 W/m 5.2 C 15.6 C 8.7 km/h (2 Bft)
21.09.2008 17:00 14.6 C 52 % 1019.6 hPa 0.0 l/m 4.3 km/h (1 Bft) O-SO 0.23 h 140 W/m 4.8 C 14.6 C 8.3 km/h (2 Bft)
21.09.2008 18:00 13.8 C 55 % 1019.6 hPa 0.0 l/m 2.0 km/h (1 Bft) O-SO 0.00 h 46 W/m 5.0 C 13.8 C 4.1 km/h (1 Bft)
21.09.2008 19:00 12.0 C 66 % 1019.8 hPa 0.0 l/m 1.9 km/h (1 Bft) O-SO 0.03 h 13 W/m 5.9 C 12.0 C 3.6 km/h (1 Bft)
21.09.2008 20:00 10.4 C 73 % 1020.0 hPa 0.0 l/m 2.0 km/h (1 Bft) O-SO 0.00 h 0 W/m 5.8 C 10.4 C 4.1 km/h (1 Bft)
21.09.2008 21:00 9.2 C 79 % 1020.2 hPa 0.0 l/m 0.6 km/h (0 Bft) O 0.00 h 0 W/m 5.7 C 9.2 C 2.2 km/h (1 Bft)
21.09.2008 22:00 7.9 C 86 % 1020.0 hPa 0.0 l/m 0.4 km/h (0 Bft) O-NO 0.00 h 0 W/m 5.7 C 7.9 C 1.1 km/h (0 Bft)
21.09.2008 23:00 7.4 C 86 % 1019.8 hPa 0.0 l/m 0.9 km/h (0 Bft) O 0.00 h 0 W/m 5.3 C 7.4 C 1.8 km/h (1 Bft)
Min-Datum _ 17.09.08 20.09.08 15.09.08 - 15.09.08 - - - 20.09.08 17.09.08 15.09.08
_ Min-Zeit 05:19 16:03 02:45 - 00:00 - - - 23:43 05:19 00:00
Minimum _ 3.3 C 44 % 1018.5 hPa - 0.0 km/h (0 Bft) - - - 2.7 C 3.3 C 0.0 km/h (0 Bft)
Max-Datum _ 19.09.08 18.09.08 20.09.08 17.09.08 21.09.08 - 15.09.08 16.09.08 19.09.08 19.09.08 20.09.08
_ Max-Zeit 15:57 08:29 08:45 05:17 13:08 - 09:31 12:39 18:33 15:57 13:53
Maximum _ 19.4 C 100 % 1027.2 hPa 0.2 l/m 22.6 km/h
O-SO (4 Bft)
- 0.02 h 902 W/m 14.8 C 19.4 C 33.0 km/h
O-SO (5 Bft)
Durchschnitt _ 9.9 C 80 % 1021.7 hPa #0.8 l/m 2.1 km/h (1 Bft) O-SO #28:55 h 225 W/m 6.3 C 9.8 C 4.4 km/h (1 Bft)
© Kaiko 2008